Time;durP1;ratioP1;P1;durP2;ratioP2;P2;SDS_P1;SDS_P2;PMS_P1;PMS_P2;Temp;Humidity;BMP_temperature;BMP_pressure;BME280_temperature;BME280_humidity;BME280_pressure;Samples;Min_cycle;Max_cycle;Signal;HPM_P1;HPM_P2
2022/03/22 00:01:37;;;;;;;;;21.00;17.00;;;;;15.59;34.79;100501.66;4858768;28;104407;-84
2022/03/22 00:04:04;;;;;;;;;19.00;17.50;;;;;15.59;33.98;100495.38;4862752;28;102685;-83
2022/03/22 00:06:31;;;;;;;;;26.25;21.50;;;;;15.57;34.44;100497.44;4862952;28;104199;-84
2022/03/22 00:08:59;;;;;;;;;15.25;13.75;;;;;15.56;34.42;100503.94;4857331;28;105044;-83
2022/03/22 00:11:25;;;;;;;;;20.00;17.50;;;;;15.55;34.63;100505.81;4858140;28;102513;-83
2022/03/22 00:13:53;;;;;;;;;27.75;20.25;;;;;15.53;34.60;100496.97;4853889;28;104282;-83
2022/03/22 00:16:20;;;;;;;;;18.50;17.25;;;;;15.53;34.81;100496.13;4848840;28;105343;-83
2022/03/22 00:19:07;;;;;;;;;20.00;17.75;;;;;15.51;34.97;100496.31;4856892;28;102125;-83
2022/03/22 00:21:35;;;;;;;;;20.50;16.75;;;;;15.50;34.54;100491.00;4852505;28;104244;-83
2022/03/22 00:24:03;;;;;;;;;20.00;17.25;;;;;15.49;34.85;100492.06;4892138;28;104565;-83
2022/03/22 00:26:30;;;;;;;;;25.25;22.00;;;;;15.48;34.58;100487.63;4891549;28;104412;-83
2022/03/22 00:28:58;;;;;;;;;23.25;20.50;;;;;15.48;34.90;100493.94;4890314;28;103495;-83
2022/03/22 00:31:29;;;;;;;;;20.75;18.00;;;;;15.47;34.88;100485.94;4895565;28;102470;-83
2022/03/22 00:33:56;;;;;;;;;20.50;18.00;;;;;15.45;35.24;100488.81;4895925;28;102846;-83
2022/03/22 00:36:23;;;;;;;;;21.25;17.00;;;;;15.44;34.87;100480.84;4894933;28;104207;-83
2022/03/22 00:38:50;;;;;;;;;24.75;17.50;;;;;15.41;34.39;100482.06;4895855;28;103103;-83
2022/03/22 00:41:18;;;;;;;;;21.25;19.25;;;;;15.41;34.88;100482.06;4890082;28;102982;-83
2022/03/22 00:43:46;;;;;;;;;25.50;20.00;;;;;15.41;34.63;100483.94;4890135;28;104516;-83
2022/03/22 00:46:13;;;;;;;;;23.25;20.50;;;;;15.40;35.08;100474.91;4906291;28;104425;-83
2022/03/22 00:48:41;;;;;;;;;18.50;17.50;;;;;15.41;34.75;100486.66;4892844;28;102599;-83
2022/03/22 00:51:09;;;;;;;;;20.75;18.25;;;;;15.40;34.90;100476.81;4897644;28;102584;-83
2022/03/22 00:53:36;;;;;;;;;20.25;18.25;;;;;15.40;34.80;100479.53;4904076;28;104325;-83
2022/03/22 00:56:04;;;;;;;;;23.75;19.00;;;;;15.39;34.93;100483.28;4892722;28;104073;-83
2022/03/22 00:58:32;;;;;;;;;22.25;20.50;;;;;15.31;34.99;100462.41;4899896;28;102459;-84
2022/03/22 01:00:59;;;;;;;;;22.75;19.75;;;;;15.38;34.86;100478.88;4897874;28;102693;-84
2022/03/22 01:03:28;;;;;;;;;20.25;19.25;;;;;15.38;35.00;100481.59;4895495;28;102500;-84
2022/03/22 01:05:56;;;;;;;;;22.00;21.50;;;;;15.37;34.95;100474.44;4885539;28;104461;-84
2022/03/22 01:08:23;;;;;;;;;21.75;19.50;;;;;15.37;35.20;100469.00;4893136;28;102633;-84
2022/03/22 01:10:53;;;;;;;;;26.75;20.75;;;;;15.35;34.78;100481.97;4904250;28;104167;-84
2022/03/22 01:13:24;;;;;;;;;18.25;16.25;;;;;15.35;35.13;100476.53;4891544;28;102721;-83
2022/03/22 01:15:51;;;;;;;;;22.25;20.25;;;;;15.34;34.80;100475.66;4893971;28;104279;-84
2022/03/22 01:18:19;;;;;;;;;22.75;19.50;;;;;15.33;34.97;100470.41;4896770;28;104433;-83
2022/03/22 01:20:47;;;;;;;;;20.25;16.50;;;;;15.34;35.08;100475.66;4900327;28;102702;-83
2022/03/22 01:23:15;;;;;;;;;23.25;16.75;;;;;15.34;34.69;100477.53;4901811;28;104337;-83
2022/03/22 01:25:43;;;;;;;;;21.50;19.00;;;;;15.34;34.71;100470.22;4904031;28;104265;-83
2022/03/22 01:28:12;;;;;;;;;19.25;16.75;;;;;15.35;34.69;100462.91;4903591;28;103114;-84
2022/03/22 01:30:39;;;;;;;;;21.50;20.50;;;;;15.33;34.60;100462.22;4904908;28;103716;-83
2022/03/22 01:33:06;;;;;;;;;21.75;17.75;;;;;15.32;35.55;100457.78;4895086;28;102643;-83
2022/03/22 01:35:34;;;;;;;;;19.00;18.75;;;;;15.31;35.09;100458.84;4903777;28;105807;-83
2022/03/22 01:38:01;;;;;;;;;15.00;14.75;;;;;15.31;34.91;100467.03;4909828;28;102397;-84
2022/03/22 01:40:29;;;;;;;;;16.50;16.50;;;;;15.30;34.90;100459.88;4903166;28;102492;-84
2022/03/22 01:42:57;;;;;;;;;13.00;11.00;;;;;15.30;35.11;100466.19;4900175;28;102231;-84
2022/03/22 01:45:24;;;;;;;;;23.75;20.25;;;;;15.28;35.39;100462.78;4892437;28;104615;-83
2022/03/22 01:47:52;;;;;;;;;22.50;19.00;;;;;15.27;34.99;100460.22;4893418;28;104365;-83
2022/03/22 01:50:19;;;;;;;;;21.25;18.25;;;;;15.26;35.29;100459.41;4909094;28;103926;-83
2022/03/22 01:52:47;;;;;;;;;19.25;15.25;;;;;15.24;35.08;100453.28;4893710;28;102392;-83
2022/03/22 01:55:15;;;;;;;;;19.50;17.75;;;;;15.24;35.37;100444.25;4893635;28;104109;-83
2022/03/22 01:57:42;;;;;;;;;17.25;15.75;;;;;15.22;34.98;100455.34;4902858;28;106078;-83
2022/03/22 02:00:14;;;;;;;;;22.00;19.25;;;;;15.22;35.11;100452.59;4897945;28;102423;-83
2022/03/22 02:08:18;;;;;;;;;19.75;17.00;;;;;15.22;35.10;100447.16;4879065;28;102709;-84
2022/03/22 02:10:46;;;;;;;;;26.75;22.50;;;;;15.21;35.11;100444.66;4893522;28;102426;-84
2022/03/22 02:13:13;;;;;;;;;18.50;16.50;;;;;15.20;35.12;100451.97;4897022;28;104580;-84
2022/03/22 02:15:40;;;;;;;;;23.50;17.25;;;;;15.19;34.75;100445.66;4881212;28;109168;-83
2022/03/22 02:18:07;;;;;;;;;19.50;16.50;;;;;15.19;34.99;100445.66;4892153;28;104054;-84
2022/03/22 02:20:36;;;;;;;;;19.25;17.25;;;;;15.19;34.96;100442.94;4901599;28;104193;-84
2022/03/22 02:23:05;;;;;;;;;19.00;16.25;;;;;15.18;34.97;100443.13;4911375;28;104943;-83
2022/03/22 02:25:35;;;;;;;;;18.00;16.75;;;;;15.14;34.82;100447.25;4897155;28;104766;-83
2022/03/22 02:28:05;;;;;;;;;18.50;16.50;;;;;15.14;34.97;100445.38;4896570;28;102423;-84
2022/03/22 02:30:33;;;;;;;;;18.25;16.50;;;;;15.13;35.30;100445.53;4898294;28;103825;-84
2022/03/22 02:33:01;;;;;;;;;20.25;15.25;;;;;15.12;35.16;100455.63;4917583;28;104360;-83
2022/03/22 02:35:29;;;;;;;;;20.00;18.75;;;;;15.12;34.85;100455.63;4895575;28;104095;-83
2022/03/22 02:37:56;;;;;;;;;21.50;18.75;;;;;15.11;35.21;100455.81;4893956;28;102599;-83
2022/03/22 02:40:27;;;;;;;;;17.25;17.00;;;;;15.09;35.11;100455.97;4886061;28;104276;-83
2022/03/22 02:42:59;;;;;;;;;16.50;14.75;;;;;15.09;34.86;100453.25;4913450;28;104536;-83
2022/03/22 02:45:26;;;;;;;;;21.00;18.50;;;;;15.09;35.06;100455.13;4895850;28;104316;-83
2022/03/22 02:47:53;;;;;;;;;17.75;14.25;;;;;15.06;35.26;100459.06;4897584;28;111871;-83
2022/03/22 02:50:21;;;;;;;;;18.75;14.50;;;;;15.08;34.97;100459.72;4898874;28;103858;-83
2022/03/22 02:52:48;;;;;;;;;18.50;16.50;;;;;15.06;35.35;100456.34;4900316;28;104005;-83
2022/03/22 02:55:15;;;;;;;;;18.00;15.75;;;;;15.07;34.89;100452.59;4893833;28;104044;-83
2022/03/22 02:57:43;;;;;;;;;18.50;14.25;;;;;15.05;34.96;100449.22;4900446;28;102558;-83
2022/03/22 03:00:11;;;;;;;;;20.50;16.00;;;;;15.07;34.81;100451.75;4901255;28;103617;-83
2022/03/22 03:02:48;;;;;;;;;19.50;15.00;;;;;15.07;34.93;100459.94;4907720;28;104104;-83
2022/03/22 03:05:15;;;;;;;;;21.75;19.00;;;;;15.06;34.98;100461.81;4890259;28;108854;-83
2022/03/22 03:07:42;;;;;;;;;19.75;15.75;;;;;15.05;35.36;100464.69;4904573;28;102398;-84
2022/03/22 03:10:10;;;;;;;;;22.00;19.50;;;;;15.03;34.79;100467.63;4894550;28;104268;-83
2022/03/22 03:12:37;;;;;;;;;18.00;16.50;;;;;15.02;34.75;100462.34;4904025;28;104211;-83
2022/03/22 03:15:05;;;;;;;;;22.00;18.75;;;;;15.02;35.01;100454.19;4903938;28;104259;-83
2022/03/22 03:17:33;;;;;;;;;20.75;16.00;;;;;15.01;34.81;100472.41;4901870;28;102231;-83
2022/03/22 03:20:00;;;;;;;;;18.50;14.00;;;;;15.01;35.39;100475.13;4897133;28;102517;-83
2022/03/22 03:22:27;;;;;;;;;17.25;16.25;;;;;14.99;35.34;100471.75;4904800;28;104098;-84
2022/03/22 03:24:54;;;;;;;;;19.00;16.25;;;;;14.99;34.97;100469.03;4900834;28;104266;-83
2022/03/22 03:27:22;;;;;;;;;19.25;17.25;;;;;14.97;34.83;100468.34;4900580;28;102540;-83
2022/03/22 03:29:49;;;;;;;;;18.00;16.75;;;;;14.99;34.79;100476.34;4899269;28;104423;-83
2022/03/22 03:32:16;;;;;;;;;19.50;16.25;;;;;14.98;35.21;100471.94;4900778;28;102889;-83
2022/03/22 03:34:43;;;;;;;;;14.75;14.75;;;;;14.96;35.02;100469.38;4910603;28;104054;-83
2022/03/22 03:37:10;;;;;;;;;20.50;18.00;;;;;14.97;34.76;100471.09;4897521;28;102229;-83
2022/03/22 03:39:38;;;;;;;;;14.50;12.00;;;;;14.97;34.91;100473.81;4892244;28;103808;-83
2022/03/22 03:42:06;;;;;;;;;21.25;17.50;;;;;14.95;35.07;100475.84;4892446;28;103935;-83
2022/03/22 03:47:22;;;;;;;;;21.75;19.00;;;;;14.94;34.75;100466.00;4894991;28;102431;-83
2022/03/22 03:49:57;;;;;;;;;15.00;14.25;;;;;14.93;35.15;100466.19;4917677;28;103168;-83
2022/03/22 03:52:26;;;;;;;;;17.00;15.25;;;;;14.92;35.12;100476.22;4905817;28;102702;-83
2022/03/22 03:54:53;;;;;;;;;20.25;16.25;;;;;14.94;35.49;100470.59;4901051;28;104208;-83
2022/03/22 03:57:20;;;;;;;;;15.50;13.00;;;;;14.92;34.84;100470.78;4896203;28;104459;-83
2022/03/22 03:59:48;;;;;;;;;18.25;16.25;;;;;14.92;35.21;100468.06;4896679;28;102470;-83
2022/03/22 04:02:16;;;;;;;;;18.75;16.50;;;;;14.92;34.76;100476.22;4902113;28;104012;-83
2022/03/22 04:04:44;;;;;;;;;17.25;15.25;;;;;14.92;35.18;100476.22;4898628;28;103766;-83
2022/03/22 04:07:12;;;;;;;;;18.00;14.25;;;;;14.91;34.77;100471.81;4897425;28;104210;-83
2022/03/22 04:09:39;;;;;;;;;17.00;12.25;;;;;14.91;34.59;100476.41;4899035;28;102946;-83
2022/03/22 04:12:07;;;;;;;;;15.25;15.00;;;;;14.92;35.11;100475.38;4893458;28;102718;-83
2022/03/22 04:14:34;;;;;;;;;18.50;14.75;;;;;14.90;35.27;100475.59;4905222;28;104797;-83
2022/03/22 04:17:01;;;;;;;;;18.50;17.75;;;;;14.91;35.18;100479.97;4908169;28;102308;-83
2022/03/22 04:19:28;;;;;;;;;17.50;15.25;;;;;14.92;35.14;100480.81;4904584;28;102321;-84
2022/03/22 04:21:56;;;;;;;;;19.00;15.00;;;;;14.93;34.86;100477.09;4906683;28;103673;-83
2022/03/22 04:24:23;;;;;;;;;14.75;14.00;;;;;14.91;35.15;100479.13;4909428;28;104030;-83
2022/03/22 04:26:50;;;;;;;;;15.00;15.00;;;;;14.91;34.58;100479.97;4902487;28;104612;-83
2022/03/22 04:34:52;;;;;;;;;16.75;13.25;;;;;14.87;34.78;100484.09;4902983;28;108624;-83
2022/03/22 04:37:19;;;;;;;;;17.25;15.50;;;;;14.84;34.86;100478.19;4898628;28;102691;-83
2022/03/22 04:39:46;;;;;;;;;18.50;16.00;;;;;14.83;34.75;100479.19;4897475;28;102539;-83
2022/03/22 04:42:16;;;;;;;;;17.75;14.25;;;;;14.82;35.30;100485.66;4903113;28;102577;-83
2022/03/22 04:44:43;;;;;;;;;15.25;15.25;;;;;14.80;34.94;100483.16;4900890;28;110954;-83
2022/03/22 04:47:10;;;;;;;;;16.00;14.25;;;;;14.79;35.34;100492.34;4893320;28;103681;-83
2022/03/22 04:49:37;;;;;;;;;15.25;14.25;;;;;14.77;34.44;100499.00;4893679;28;103995;-82
2022/03/22 04:57:36;;;;;;;;;19.00;15.75;;;;;14.77;35.14;100499.00;4900818;28;103228;-83
2022/03/22 05:00:05;;;;;;;;;22.50;18.75;;;;;14.76;34.86;100502.75;4891346;28;102784;-83
2022/03/22 05:02:33;;;;;;;;;18.00;13.75;;;;;14.75;34.88;100501.91;4905287;28;102392;-83
2022/03/22 05:05:00;;;;;;;;;18.00;15.00;;;;;14.73;34.73;100495.78;4897882;28;105898;-83
2022/03/22 05:07:27;;;;;;;;;18.50;16.50;;;;;14.72;34.81;100500.38;4896531;28;105287;-83
2022/03/22 05:09:54;;;;;;;;;23.50;18.50;;;;;14.73;35.17;100506.66;4905081;28;102813;-83
2022/03/22 05:12:21;;;;;;;;;17.50;15.25;;;;;14.72;34.62;100502.28;4899936;28;104120;-83
2022/03/22 05:14:50;;;;;;;;;19.00;19.00;;;;;14.71;34.86;100511.47;4902581;28;103801;-83
2022/03/22 05:17:21;;;;;;;;;18.00;17.00;;;;;14.69;34.65;100508.06;4897497;28;102524;-83
2022/03/22 05:19:49;;;;;;;;;19.00;18.25;;;;;14.69;34.49;100510.78;4904946;28;103934;-83
2022/03/22 05:22:17;;;;;;;;;16.50;16.50;;;;;14.67;34.77;100515.59;4910994;28;102671;-84
2022/03/22 05:24:47;;;;;;;;;18.50;16.25;;;;;14.67;34.96;100516.44;4904317;28;104114;-83
2022/03/22 05:27:15;;;;;;;;;19.00;17.00;;;;;14.67;34.90;100523.75;4896810;28;104659;-83
2022/03/22 05:29:42;;;;;;;;;18.00;16.00;;;;;14.66;34.59;100516.59;4902905;28;102750;-83
2022/03/22 05:32:09;;;;;;;;;18.75;18.00;;;;;14.67;34.68;100526.47;4896467;28;102869;-83
2022/03/22 05:34:36;;;;;;;;;21.25;16.75;;;;;14.65;34.49;100529.38;4898156;28;104195;-83
2022/03/22 05:37:04;;;;;;;;;21.00;18.50;;;;;14.64;34.31;100521.38;4892842;28;102445;-83
2022/03/22 05:39:31;;;;;;;;;21.50;18.00;;;;;14.64;34.97;100524.09;4896052;28;104260;-83
2022/03/22 05:41:58;;;;;;;;;19.50;17.75;;;;;14.64;35.06;100518.66;4896269;28;102221;-83
2022/03/22 05:44:25;;;;;;;;;20.00;15.50;;;;;14.64;34.56;100516.78;4894531;28;104052;-83
2022/03/22 05:46:55;;;;;;;;;23.75;19.75;;;;;14.64;34.84;100526.81;4903864;28;102331;-83
2022/03/22 05:49:22;;;;;;;;;21.25;18.75;;;;;14.64;34.67;100537.72;4897186;28;102399;-83
2022/03/22 05:51:49;;;;;;;;;22.25;20.75;;;;;14.64;34.88;100529.53;4906898;28;102506;-83
2022/03/22 05:54:16;;;;;;;;;20.00;19.00;;;;;14.63;34.37;100525.97;4889606;28;104130;-83
2022/03/22 05:56:43;;;;;;;;;25.00;20.25;;;;;14.63;34.97;100539.56;4905661;28;102187;-83
2022/03/22 05:59:10;;;;;;;;;21.50;18.25;;;;;14.64;34.25;100529.53;4897859;28;102458;-83
2022/03/22 06:01:37;;;;;;;;;20.00;19.25;;;;;14.63;34.86;100527.88;4894390;28;102582;-83
2022/03/22 06:04:04;;;;;;;;;24.00;20.00;;;;;14.63;34.96;100533.31;4894391;28;104031;-83
2022/03/22 06:06:31;;;;;;;;;25.00;18.75;;;;;14.61;34.83;100530.75;4903965;28;105323;-83
2022/03/22 06:08:58;;;;;;;;;20.50;18.25;;;;;14.64;34.88;100537.72;4895598;28;103008;-83
2022/03/22 06:11:25;;;;;;;;;22.50;18.75;;;;;14.62;34.40;100528.88;4903510;28;106267;-83
2022/03/22 06:13:52;;;;;;;;;19.25;16.50;;;;;14.62;34.43;100545.22;4902378;28;104146;-83
2022/03/22 06:16:20;;;;;;;;;20.75;19.50;;;;;14.63;34.07;100544.22;4901317;28;102624;-84
2022/03/22 06:18:47;;;;;;;;;25.75;19.50;;;;;14.61;34.31;100540.81;4905206;28;102038;-83
2022/03/22 06:21:14;;;;;;;;;24.00;19.00;;;;;14.61;34.81;100546.25;4903520;28;102185;-83
2022/03/22 06:23:43;;;;;;;;;27.50;21.50;;;;;14.60;34.32;100539.09;4900583;28;108808;-83
2022/03/22 06:26:10;;;;;;;;;21.25;20.00;;;;;14.60;34.31;100550.84;4907501;28;102144;-83
2022/03/22 06:28:37;;;;;;;;;25.50;20.00;;;;;14.60;34.80;100548.13;4891090;28;102106;-83
2022/03/22 06:31:05;;;;;;;;;22.00;19.00;;;;;14.61;34.38;100538.94;4901514;28;101990;-84
2022/03/22 06:33:32;;;;;;;;;21.75;21.00;;;;;14.62;34.05;100548.78;4890708;28;104136;-83
2022/03/22 06:35:59;;;;;;;;;23.75;23.00;;;;;14.61;34.71;100543.53;4905407;28;103334;-83
2022/03/22 06:38:26;;;;;;;;;26.75;25.00;;;;;14.63;34.71;100555.91;4923994;28;102466;-83
2022/03/22 06:40:53;;;;;;;;;21.75;19.00;;;;;14.62;34.33;100546.06;4905635;28;102737;-82
2022/03/22 06:43:20;;;;;;;;;20.25;18.25;;;;;14.62;34.35;100545.22;4895151;28;104053;-83
2022/03/22 06:45:47;;;;;;;;;23.75;22.00;;;;;14.63;34.03;100549.66;4925680;28;102516;-83
2022/03/22 06:48:17;;;;;;;;;21.00;19.00;;;;;14.63;34.71;100546.94;4906892;28;102211;-84
2022/03/22 06:50:47;;;;;;;;;22.75;21.25;;;;;14.60;34.63;100547.25;4904888;28;102620;-83
2022/03/22 06:53:14;;;;;;;;;24.00;22.25;;;;;14.61;34.69;100554.41;4900839;28;109073;-83
2022/03/22 06:55:41;;;;;;;;;23.75;22.25;;;;;14.59;34.79;100554.59;4901514;28;102398;-83
2022/03/22 06:58:08;;;;;;;;;22.50;20.50;;;;;14.58;34.61;100550.19;4900868;28;102279;-83
2022/03/22 07:00:35;;;;;;;;;22.00;20.50;;;;;14.58;34.57;100555.63;4899185;28;103895;-84
2022/03/22 07:03:03;;;;;;;;;20.75;19.75;;;;;14.57;35.14;100551.22;4918437;28;104047;-84
2022/03/22 07:05:30;;;;;;;;;22.25;20.50;;;;;14.57;34.42;100553.94;4897103;28;102210;-84
2022/03/22 07:07:57;;;;;;;;;27.75;24.00;;;;;14.58;34.23;100549.34;4901324;28;102611;-84
2022/03/22 07:10:25;;;;;;;;;24.25;21.50;;;;;14.57;34.39;100561.25;4898953;28;102390;-84
2022/03/22 07:13:04;;;;;;;;;24.00;21.00;;;;;14.56;34.91;100552.22;4892449;28;103758;-84
2022/03/22 07:15:33;;;;;;;;;25.25;22.25;;;;;14.57;34.57;100558.53;4922876;28;102630;-83
2022/03/22 07:18:01;;;;;;;;;25.75;20.25;;;;;14.60;34.58;100555.44;4918178;28;102627;-83
2022/03/22 07:20:28;;;;;;;;;25.00;22.75;;;;;14.62;34.73;100561.56;4896201;28;102232;-84
2022/03/22 07:22:58;;;;;;;;;27.75;25.25;;;;;14.63;34.75;100552.38;4903957;28;104098;-83
2022/03/22 07:25:25;;;;;;;;;22.00;19.25;;;;;14.66;34.39;100569.19;4903088;28;103729;-84
2022/03/22 07:27:54;;;;;;;;;25.00;22.50;;;;;14.71;34.87;100561.34;4901221;28;102679;-83
2022/03/22 07:30:22;;;;;;;;;23.00;20.75;;;;;14.72;34.19;100559.47;4894429;28;102844;-84
2022/03/22 07:32:49;;;;;;;;;21.75;19.75;;;;;14.80;34.17;100559.41;4893394;28;104114;-84
2022/03/22 07:35:19;;;;;;;;;24.75;22.00;;;;;14.82;34.55;100568.22;4917340;28;104097;-84
2022/03/22 07:37:48;;;;;;;;;23.75;20.50;;;;;14.88;34.70;100566.66;4882863;28;101800;-84
2022/03/22 07:40:16;;;;;;;;;19.50;17.00;;;;;14.91;34.62;100564.41;4888113;28;103734;-84
2022/03/22 07:42:44;;;;;;;;;21.00;20.75;;;;;14.94;34.00;100565.94;4887316;28;109189;-84
2022/03/22 07:45:11;;;;;;;;;23.75;19.75;;;;;14.97;34.26;100558.25;4879825;28;102349;-84
2022/03/22 07:47:40;;;;;;;;;26.75;22.00;;;;;14.99;34.61;100556.22;4894570;28;102353;-84
2022/03/22 07:53:06;;;;;;;;;21.25;20.25;;;;;15.06;34.61;100565.34;4898574;28;110261;-84
2022/03/22 07:55:38;;;;;;;;;20.00;18.50;;;;;15.08;33.93;100559.72;4893108;28;102603;-84
2022/03/22 07:58:05;;;;;;;;;23.50;20.25;;;;;15.12;34.24;100553.72;4904124;28;102504;-84
2022/03/22 08:00:38;;;;;;;;;24.75;19.50;;;;;15.14;34.37;100551.66;4885624;28;102844;-84
2022/03/22 08:03:08;;;;;;;;;20.25;18.75;;;;;15.17;34.22;100556.72;4890855;28;104296;-84
2022/03/22 08:05:36;;;;;;;;;22.00;17.50;;;;;15.19;34.10;100554.66;4896559;28;102303;-84
2022/03/22 08:08:03;;;;;;;;;19.75;19.25;;;;;15.21;34.13;100550.91;4898160;28;102132;-84
2022/03/22 08:10:50;;;;;;;;;16.00;14.75;;;;;15.23;33.86;100549.69;4901557;28;102712;-84
2022/03/22 08:13:20;;;;;;;;;21.25;19.75;;;;;15.25;33.89;100552.25;4897040;28;104255;-84
2022/03/22 08:15:47;;;;;;;;;20.25;20.00;;;;;15.27;34.21;100550.16;4899423;28;105638;-84
2022/03/22 08:18:15;;;;;;;;;19.75;17.50;;;;;15.27;34.35;100545.56;4902755;28;102399;-84
2022/03/22 08:20:43;;;;;;;;;20.25;18.00;;;;;15.28;34.07;100544.53;4893673;28;103441;-84
2022/03/22 08:23:10;;;;;;;;;23.25;19.00;;;;;15.28;34.44;100543.69;4878951;28;104129;-84
2022/03/22 08:25:38;;;;;;;;;19.75;18.50;;;;;15.29;34.48;100537.22;4903538;28;109733;-84
2022/03/22 08:28:07;;;;;;;;;25.25;22.25;;;;;15.29;34.26;100539.94;4905975;28;102859;-84
2022/03/22 08:30:34;;;;;;;;;19.50;17.00;;;;;15.29;34.08;100534.50;4898956;28;102536;-84
2022/03/22 08:33:11;;;;;;;;;23.50;19.00;;;;;15.30;34.18;100541.66;4907838;28;104084;-84
2022/03/22 08:35:45;;;;;;;;;22.00;17.00;;;;;15.30;34.05;100545.22;4907502;28;102470;-84
2022/03/22 08:38:14;;;;;;;;;23.00;17.75;;;;;15.30;33.98;100534.31;4917390;28;103537;-84
2022/03/22 08:40:41;;;;;;;;;22.00;19.00;;;;;15.31;34.35;100543.34;4892661;28;102637;-83
2022/03/22 08:43:08;;;;;;;;;19.75;16.50;;;;;15.30;34.12;100538.91;4901832;28;104026;-84
2022/03/22 08:45:35;;;;;;;;;16.25;15.75;;;;;15.29;34.46;100538.06;4899450;28;103814;-84
2022/03/22 08:48:09;;;;;;;;;23.25;18.50;;;;;15.29;34.02;100542.66;4899012;28;102482;-84
2022/03/22 08:50:37;;;;;;;;;20.00;17.00;;;;;15.27;34.43;100540.13;4904169;28;102578;-84
2022/03/22 08:53:05;;;;;;;;;20.25;17.00;;;;;15.28;34.37;100530.06;4918447;28;104452;-84
2022/03/22 08:55:32;;;;;;;;;19.50;18.25;;;;;15.29;34.01;100542.66;4896142;28;102444;-84
2022/03/22 08:58:05;;;;;;;;;19.00;18.25;;;;;15.27;34.24;100534.66;4901462;28;102576;-84
2022/03/22 09:00:33;;;;;;;;;19.00;17.75;;;;;15.27;34.55;100534.66;4900726;28;102703;-84
2022/03/22 09:03:01;;;;;;;;;17.50;17.25;;;;;15.27;34.39;100528.38;4905865;28;104332;-84
2022/03/22 09:08:14;;;;;;;;;18.75;15.50;;;;;15.28;34.16;100530.06;4894387;28;102179;-84
2022/03/22 09:10:41;;;;;;;;;19.25;18.50;;;;;15.28;34.32;100524.63;4897765;28;102507;-84
2022/03/22 09:13:08;;;;;;;;;18.25;14.25;;;;;15.30;33.96;100534.31;4914891;28;104089;-84
2022/03/22 09:15:37;;;;;;;;;23.50;19.00;;;;;15.31;34.17;100518.81;4895595;28;102252;-84
2022/03/22 09:18:16;;;;;;;;;17.25;16.00;;;;;15.31;34.16;100518.81;4899170;28;102216;-84
2022/03/22 09:20:45;;;;;;;;;13.25;12.75;;;;;15.32;34.16;100523.22;4904775;28;103725;-84
2022/03/22 09:23:13;;;;;;;;;20.00;13.75;;;;;15.30;34.21;100517.97;4902714;28;105743;-84
2022/03/22 09:25:40;;;;;;;;;18.00;15.00;;;;;15.30;34.01;100523.41;4898331;28;103293;-84
2022/03/22 09:28:08;;;;;;;;;26.00;19.25;;;;;15.30;34.17;100528.00;4899671;28;102653;-84
2022/03/22 09:30:35;;;;;;;;;23.00;17.50;;;;;15.30;34.49;100519.84;4896264;28;102467;-84
2022/03/22 09:33:03;;;;;;;;;18.00;17.00;;;;;15.29;34.39;100521.72;4902978;28;104234;-84
2022/03/22 09:35:31;;;;;;;;;19.50;19.00;;;;;15.29;34.39;100510.81;4901696;28;102229;-84
2022/03/22 09:37:59;;;;;;;;;17.50;15.50;;;;;15.29;34.20;100504.50;4904009;28;102591;-84
2022/03/22 09:40:27;;;;;;;;;18.50;16.50;;;;;15.28;34.35;100502.81;4872388;28;102496;-84
2022/03/22 09:42:55;;;;;;;;;16.50;16.00;;;;;15.29;34.17;100507.25;4887823;28;104088;-84
2022/03/22 09:45:24;;;;;;;;;22.25;20.00;;;;;15.28;34.35;100490.03;4915089;28;102573;-84
2022/03/22 09:47:52;;;;;;;;;18.00;16.25;;;;;15.28;34.56;100492.75;4919395;28;102293;-84
2022/03/22 09:50:20;;;;;;;;;21.50;14.75;;;;;15.30;34.59;100493.44;4891469;28;102586;-84
2022/03/22 09:52:47;;;;;;;;;13.75;13.00;;;;;15.33;34.23;100494.94;4921524;28;104013;-84
2022/03/22 09:55:16;;;;;;;;;16.00;14.50;;;;;15.35;34.44;100492.88;4893173;28;103303;-84
2022/03/22 09:57:44;;;;;;;;;18.00;17.25;;;;;15.37;34.22;100485.34;4896749;28;111452;-84
2022/03/22 10:00:14;;;;;;;;;18.00;15.00;;;;;15.39;34.25;100491.47;4894379;28;102611;-84
2022/03/22 10:02:41;;;;;;;;;18.25;16.75;;;;;15.41;34.16;100481.22;4893783;28;103946;-85
2022/03/22 10:05:23;;;;;;;;;14.75;14.00;;;;;15.42;34.19;100478.31;4911803;28;102370;-84
2022/03/22 10:08:00;;;;;;;;;16.00;15.25;;;;;15.44;34.33;100478.97;4903658;28;102285;-84
2022/03/22 10:10:27;;;;;;;;;19.75;15.25;;;;;15.46;33.92;100476.03;4900817;28;102337;-84
2022/03/22 10:12:59;;;;;;;;;15.00;12.50;;;;;15.48;34.23;100477.56;4895025;28;104448;-84
2022/03/22 10:15:30;;;;;;;;;17.25;15.25;;;;;15.49;34.42;100470.25;4898997;28;103334;-84
2022/03/22 10:18:08;;;;;;;;;17.25;14.50;;;;;15.52;34.27;100472.63;4898548;28;102572;-84
2022/03/22 10:20:39;;;;;;;;;17.25;16.00;;;;;15.53;34.39;100475.16;4894319;28;102209;-84
2022/03/22 10:23:07;;;;;;;;;14.00;12.50;;;;;15.55;33.92;100469.50;4892891;28;103396;-84
2022/03/22 10:25:38;;;;;;;;;14.00;13.75;;;;;15.56;34.42;100463.03;4899185;28;102579;-84
2022/03/22 10:28:08;;;;;;;;;19.75;16.50;;;;;15.58;34.28;100471.84;4902917;28;102312;-84
2022/03/22 10:30:35;;;;;;;;;13.75;13.75;;;;;15.59;34.40;100468.94;4891756;28;102465;-84
2022/03/22 10:33:02;;;;;;;;;11.50;10.50;;;;;15.60;34.43;100464.34;4922761;28;104229;-84
2022/03/22 10:35:31;;;;;;;;;14.25;14.00;;;;;15.61;34.14;100466.03;4901893;28;105251;-84
2022/03/22 10:38:00;;;;;;;;;15.00;14.50;;;;;15.63;34.38;100464.81;4913386;28;102393;-84
2022/03/22 10:40:35;;;;;;;;;14.00;13.00;;;;;15.67;34.63;100456.28;4902554;28;102607;-85
2022/03/22 10:43:06;;;;;;;;;14.00;13.50;;;;;15.67;34.28;100459.81;4892980;28;104129;-84
2022/03/22 10:45:46;;;;;;;;;16.00;13.50;;;;;15.69;34.52;100459.63;4897648;28;102462;-84
2022/03/22 10:48:26;;;;;;;;;13.00;13.00;;;;;15.66;34.09;100447.25;4900185;28;102321;-84
2022/03/22 10:50:55;;;;;;;;;13.50;11.50;;;;;15.71;34.37;100452.13;4908355;28;102693;-84
2022/03/22 10:53:23;;;;;;;;;13.25;12.00;;;;;15.72;34.43;100440.16;4900237;28;104175;-84
2022/03/22 10:55:57;;;;;;;;;16.75;13.75;;;;;15.72;34.57;100443.72;4922938;28;102103;-84
2022/03/22 10:58:27;;;;;;;;;13.75;13.00;;;;;15.74;34.61;100443.56;4907415;28;102230;-84
2022/03/22 11:00:55;;;;;;;;;14.00;12.00;;;;;15.75;34.38;100440.66;4902115;28;102811;-84
2022/03/22 11:03:24;;;;;;;;;15.75;13.75;;;;;15.75;34.24;100446.09;4921706;28;103725;-85
2022/03/22 11:05:53;;;;;;;;;15.50;13.75;;;;;15.76;34.11;100431.41;4905251;28;103347;-85
2022/03/22 11:08:22;;;;;;;;;14.50;12.00;;;;;15.77;34.40;100435.84;4903704;28;103544;-84
2022/03/22 11:10:51;;;;;;;;;17.00;15.50;;;;;15.77;34.24;100427.66;4902753;28;102656;-85
2022/03/22 11:13:18;;;;;;;;;15.75;14.00;;;;;15.79;33.86;100428.31;4898357;28;103925;-85
2022/03/22 11:15:47;;;;;;;;;17.25;13.75;;;;;15.82;34.38;100436.13;4899042;28;102422;-85
2022/03/22 11:18:15;;;;;;;;;16.25;13.25;;;;;15.84;34.18;100427.75;4898974;28;104911;-85
2022/03/22 11:21:01;;;;;;;;;16.50;15.25;;;;;15.86;34.29;100431.97;4898631;28;102666;-85
2022/03/22 11:23:29;;;;;;;;;15.25;13.00;;;;;15.87;34.01;100417.28;4893750;28;108924;-85
2022/03/22 11:26:37;;;;;;;;;17.00;15.00;;;;;15.90;34.17;100418.78;4897531;28;102629;-85
2022/03/22 11:29:04;;;;;;;;;14.75;13.00;;;;;15.91;34.66;100412.28;4844591;28;105609;-84
2022/03/22 11:31:31;;;;;;;;;14.50;14.00;;;;;15.90;34.06;100408.72;4885221;28;102641;-85
2022/03/22 11:34:11;;;;;;;;;18.50;15.00;;;;;15.92;34.34;100397.63;4906349;28;104101;-84